Time;durP1;ratioP1;P1;durP2;ratioP2;P2;SDS_P1;SDS_P2;PMS_P1;PMS_P2;Temp;Humidity;BMP_temperature;BMP_pressure;BME280_temperature;BME280_humidity;BME280_pressure;Samples;Min_cycle;Max_cycle;Signal;HPM_P1;HPM_P2
2023/07/01 00:00:04;;;;;;;;;;;;;;;;;;5025417;28;89785;-76
2023/07/01 00:02:30;;;;;;;;;;;;;;;;;;5025429;27;89613;-77
2023/07/01 00:04:55;;;;;;;;;;;;;;;;;;5025128;28;89055;-78
2023/07/01 00:07:20;;;;;;;;;;;;;;;;;;5026168;27;89752;-77
2023/07/01 00:09:45;;;;;;;;;;;;;;;;;;5026020;28;90661;-76
2023/07/01 00:12:11;;;;;;;;;;;;;;;;;;5026185;28;90448;-77
2023/07/01 00:14:36;;;;;;;;;;;;;;;;;;5025108;28;90115;-76
2023/07/01 00:17:02;;;;;;;;;;;;;;;;;;5024538;28;91200;-77
2023/07/01 00:19:27;;;;;;;;;;;;;;;;;;5028220;27;89088;-77
2023/07/01 00:21:52;;;;;;;;;;;;;;;;;;5023899;27;91991;-77
2023/07/01 00:24:17;;;;;;;;;;;;;;;;;;5025562;28;90216;-78
2023/07/01 00:26:43;;;;;;;;;;;;;;;;;;5024363;28;89704;-76
2023/07/01 00:29:08;;;;;;;;;;;;;;;;;;5022015;28;89367;-77
2023/07/01 00:31:33;;;;;;;;;;;;;;;;;;5025409;28;89040;-76
2023/07/01 00:33:58;;;;;;;;;;;;;;;;;;5025247;28;89057;-76
2023/07/01 00:36:23;;;;;;;;;;;;;;;;;;5024432;28;89418;-77
2023/07/01 00:38:49;;;;;;;;;;;;;;;;;;5025357;27;89520;-77
2023/07/01 00:41:17;;;;;;;;;;;;;;;;;;5027467;28;89720;-77
2023/07/01 00:43:42;;;;;;;;;;;;;;;;;;5014839;28;90690;-76
2023/07/01 00:46:07;;;;;;;;;;;;;;;;;;5023325;28;91416;-77
2023/07/01 00:48:33;;;;;;;;;;;;;;;;;;5024110;27;89579;-76
2023/07/01 00:50:58;;;;;;;;;;;;;;;;;;5024903;28;89717;-76
2023/07/01 00:53:24;;;;;;;;;;;;;;;;;;5024860;28;90106;-77
2023/07/01 00:55:49;;;;;;;;;;;;;;;;;;5023691;28;91767;-77
2023/07/01 00:58:14;;;;;;;;;;;;;;;;;;5026309;28;89862;-76
2023/07/01 01:00:40;;;;;;;;;;;;;;;;;;5027993;28;90210;-77
2023/07/01 01:03:21;;;;;;;;;;;;;;;;;;5031027;28;89908;-76
2023/07/01 01:05:49;;;;;;;;;;;;;;;;;;5027678;28;89747;-77
2023/07/01 01:08:17;;;;;;;;;;;;;;;;;;5025973;28;90880;-76
2023/07/01 01:10:45;;;;;;;;;;;;;;;;;;5028016;27;89383;-76
2023/07/01 01:13:10;;;;;;;;;;;;;;;;;;5028736;27;90044;-77
2023/07/01 01:15:37;;;;;;;;;;;;;;;;;;5032407;27;89133;-75
2023/07/01 01:18:04;;;;;;;;;;;;;;;;;;5028066;27;91114;-76
2023/07/01 01:20:31;;;;;;;;;;;;;;;;;;5027900;28;90012;-76
2023/07/01 01:23:16;;;;;;;;;;;;;;;;;;5027943;27;89899;-76
2023/07/01 01:25:51;;;;;;;;;;;;;;;;;;5030121;28;89034;-77
2023/07/01 01:28:17;;;;;;;;;;;;;;;;;;5027525;27;89361;-77
2023/07/01 01:30:42;;;;;;;;;;;;;;;;;;5027837;27;89405;-77
2023/07/01 01:33:07;;;;;;;;;;;;;;;;;;5027602;27;91320;-77
2023/07/01 01:35:32;;;;;;;;;;;;;;;;;;5027630;28;89282;-76
2023/07/01 01:38:00;;;;;;;;;;;;;;;;;;5030070;28;89146;-76
2023/07/01 01:40:31;;;;;;;;;;;;;;;;;;5030002;28;90194;-78
2023/07/01 01:43:07;;;;;;;;;;;;;;;;;;5029098;27;89636;-77
2023/07/01 01:45:33;;;;;;;;;;;;;;;;;;5029496;27;89021;-77
2023/07/01 01:47:59;;;;;;;;;;;;;;;;;;5031563;27;89213;-77
2023/07/01 01:50:25;;;;;;;;;;;;;;;;;;5029926;27;89075;-77
2023/07/01 01:52:52;;;;;;;;;;;;;;;;;;5024248;28;89762;-77
2023/07/01 01:55:18;;;;;;;;;;;;;;;;;;5027157;27;89795;-76
2023/07/01 01:57:44;;;;;;;;;;;;;;;;;;5026883;27;89326;-76
2023/07/01 02:00:12;;;;;;;;;;;;;;;;;;5035194;27;92962;-77
2023/07/01 02:02:38;;;;;;;;;;;;;;;;;;5026842;27;89300;-77
2023/07/01 02:05:03;;;;;;;;;;;;;;;;;;5026956;27;89029;-77
2023/07/01 02:07:29;;;;;;;;;;;;;;;;;;5027174;28;89941;-77
2023/07/01 02:09:54;;;;;;;;;;;;;;;;;;5026509;28;89441;-77
2023/07/01 02:12:19;;;;;;;;;;;;;;;;;;5027274;28;89722;-77
2023/07/01 02:14:44;;;;;;;;;;;;;;;;;;5027068;28;89734;-77
2023/07/01 02:17:09;;;;;;;;;;;;;;;;;;5026882;28;89858;-76
2023/07/01 02:19:35;;;;;;;;;;;;;;;;;;5030972;28;90075;-77
2023/07/01 02:22:00;;;;;;;;;;;;;;;;;;5026850;28;89848;-77
2023/07/01 02:24:25;;;;;;;;;;;;;;;;;;5037551;27;90549;-76
2023/07/01 02:26:50;;;;;;;;;;;;;;;;;;5032138;27;93776;-76
2023/07/01 02:29:16;;;;;;;;;;;;;;;;;;5031050;28;90210;-76
2023/07/01 02:31:41;;;;;;;;;;;;;;;;;;5029137;28;89707;-77
2023/07/01 02:34:06;;;;;;;;;;;;;;;;;;5027827;27;91237;-76
2023/07/01 02:36:32;;;;;;;;;;;;;;;;;;5024950;28;90121;-76
2023/07/01 02:38:57;;;;;;;;;;;;;;;;;;5028840;27;90502;-77
2023/07/01 02:41:22;;;;;;;;;;;;;;;;;;5029632;28;89894;-76
2023/07/01 02:43:47;;;;;;;;;;;;;;;;;;5026057;27;89149;-76
2023/07/01 02:46:13;;;;;;;;;;;;;;;;;;5030548;27;92882;-76
2023/07/01 02:48:38;;;;;;;;;;;;;;;;;;5023727;28;92125;-77
2023/07/01 02:51:05;;;;;;;;;;;;;;;;;;5029619;28;89707;-77
2023/07/01 02:53:30;;;;;;;;;;;;;;;;;;5026545;28;89803;-76
2023/07/01 02:55:55;;;;;;;;;;;;;;;;;;5016909;28;89007;-77
2023/07/01 02:58:22;;;;;;;;;;;;;;;;;;5026234;28;89984;-76
2023/07/01 03:00:47;;;;;;;;;;;;;;;;;;5026767;27;89233;-76
2023/07/01 03:03:12;;;;;;;;;;;;;;;;;;5029916;27;89571;-76
2023/07/01 03:05:39;;;;;;;;;;;;;;;;;;5025957;28;90802;-76
2023/07/01 03:08:05;;;;;;;;;;;;;;;;;;5026249;28;91668;-76
2023/07/01 03:10:30;;;;;;;;;;;;;;;;;;5026456;27;89584;-76
2023/07/01 03:12:55;;;;;;;;;;;;;;;;;;5027782;28;91050;-76
2023/07/01 03:15:20;;;;;;;;;;;;;;;;;;5025145;28;89522;-76
2023/07/01 03:17:47;;;;;;;;;;;;;;;;;;5027078;28;89939;-77
2023/07/01 03:20:22;;;;;;;;;;;;;;;;;;5030832;27;92524;-77
2023/07/01 03:22:48;;;;;;;;;;;;;;;;;;5028580;27;89959;-76
2023/07/01 03:25:14;;;;;;;;;;;;;;;;;;5030674;27;89730;-76
2023/07/01 03:27:39;;;;;;;;;;;;;;;;;;5031159;27;90472;-75
2023/07/01 03:30:05;;;;;;;;;;;;;;;;;;5026655;28;89529;-76
2023/07/01 03:32:31;;;;;;;;;;;;;;;;;;5025917;28;89751;-77
2023/07/01 03:34:56;;;;;;;;;;;;;;;;;;5029447;28;89691;-76
2023/07/01 03:37:21;;;;;;;;;;;;;;;;;;5028997;27;92909;-76
2023/07/01 03:39:46;;;;;;;;;;;;;;;;;;5025354;28;89739;-76
2023/07/01 03:42:11;;;;;;;;;;;;;;;;;;5025665;28;89812;-77
2023/07/01 03:44:37;;;;;;;;;;;;;;;;;;5030072;27;92711;-76
2023/07/01 03:47:02;;;;;;;;;;;;;;;;;;5025449;28;90037;-76
2023/07/01 03:49:27;;;;;;;;;;;;;;;;;;5025057;27;89016;-77
2023/07/01 03:51:53;;;;;;;;;;;;;;;;;;5025563;28;91884;-76
2023/07/01 03:54:19;;;;;;;;;;;;;;;;;;5027674;28;91633;-76
2023/07/01 03:56:44;;;;;;;;;;;;;;;;;;5025499;28;91844;-76
2023/07/01 03:59:09;;;;;;;;;;;;;;;;;;5026373;28;89971;-76
2023/07/01 04:01:36;;;;;;;;;;;;;;;;;;5025787;27;90029;-75
2023/07/01 04:04:01;;;;;;;;;;;;;;;;;;5026288;28;89236;-76
2023/07/01 04:06:26;;;;;;;;;;;;;;;;;;5026005;28;89721;-76
2023/07/01 04:08:54;;;;;;;;;;;;;;;;;;5025704;28;89684;-76
2023/07/01 04:11:20;;;;;;;;;;;;;;;;;;5025516;28;89143;-77
2023/07/01 04:13:45;;;;;;;;;;;;;;;;;;5025901;27;89630;-76
2023/07/01 04:16:11;;;;;;;;;;;;;;;;;;5029251;28;90386;-76
2023/07/01 04:18:36;;;;;;;;;;;;;;;;;;5025592;27;89776;-77
2023/07/01 04:21:01;;;;;;;;;;;;;;;;;;5025110;27;89953;-76
2023/07/01 04:23:28;;;;;;;;;;;;;;;;;;5026028;27;89416;-76
2023/07/01 04:25:53;;;;;;;;;;;;;;;;;;5027642;27;90829;-76
2023/07/01 04:28:18;;;;;;;;;;;;;;;;;;5029078;28;89019;-77
2023/07/01 04:30:43;;;;;;;;;;;;;;;;;;5027200;28;90151;-76
2023/07/01 04:33:09;;;;;;;;;;;;;;;;;;5027601;28;89913;-77
2023/07/01 04:35:34;;;;;;;;;;;;;;;;;;5029118;28;89525;-76
2023/07/01 04:37:59;;;;;;;;;;;;;;;;;;5030207;28;89737;-76
2023/07/01 04:40:24;;;;;;;;;;;;;;;;;;5028902;28;89160;-77
2023/07/01 04:42:50;;;;;;;;;;;;;;;;;;5028884;28;89801;-76
2023/07/01 04:45:18;;;;;;;;;;;;;;;;;;5028649;28;89398;-77
2023/07/01 04:47:43;;;;;;;;;;;;;;;;;;5026997;28;90341;-76
2023/07/01 04:50:09;;;;;;;;;;;;;;;;;;5028657;28;89951;-76
2023/07/01 04:52:34;;;;;;;;;;;;;;;;;;5025681;27;90096;-75
2023/07/01 04:54:59;;;;;;;;;;;;;;;;;;5024978;28;89659;-75
2023/07/01 04:57:24;;;;;;;;;;;;;;;;;;5022476;27;89713;-74
2023/07/01 04:59:50;;;;;;;;;;;;;;;;;;5026463;27;89665;-74
2023/07/01 05:02:15;;;;;;;;;;;;;;;;;;5028381;28;89701;-75
2023/07/01 05:04:40;;;;;;;;;;;;;;;;;;5027500;28;89718;-75
2023/07/01 05:07:06;;;;;;;;;;;;;;;;;;5018829;27;90015;-74
2023/07/01 05:09:31;;;;;;;;;;;;;;;;;;5018018;27;90434;-75
2023/07/01 05:11:56;;;;;;;;;;;;;;;;;;5028140;28;89500;-75
2023/07/01 05:14:22;;;;;;;;;;;;;;;;;;5027355;28;89586;-75
2023/07/01 05:16:47;;;;;;;;;;;;;;;;;;5024955;27;89739;-75
2023/07/01 05:19:12;;;;;;;;;;;;;;;;;;5021508;27;89628;-75
2023/07/01 05:21:46;;;;;;;;;;;;;;;;;;5030632;28;89290;-76
2023/07/01 05:24:11;;;;;;;;;;;;;;;;;;5021977;28;89269;-75
2023/07/01 05:26:36;;;;;;;;;;;;;;;;;;5026120;28;89058;-75
2023/07/01 05:29:02;;;;;;;;;;;;;;;;;;5021017;28;89851;-75
2023/07/01 05:31:27;;;;;;;;;;;;;;;;;;5027051;28;89730;-75
2023/07/01 05:33:52;;;;;;;;;;;;;;;;;;5023776;28;90821;-75
2023/07/01 05:36:17;;;;;;;;;;;;;;;;;;5023289;28;89615;-75
2023/07/01 05:38:43;;;;;;;;;;;;;;;;;;5025427;28;89726;-75
2023/07/01 05:41:08;;;;;;;;;;;;;;;;;;5021978;28;89715;-75
2023/07/01 05:43:33;;;;;;;;;;;;;;;;;;5026725;28;90072;-75
2023/07/01 05:46:00;;;;;;;;;;;;;;;;;;5027181;27;89046;-77
2023/07/01 05:48:25;;;;;;;;;;;;;;;;;;5023327;28;90939;-75
2023/07/01 05:50:50;;;;;;;;;;;;;;;;;;5022223;28;89697;-76
2023/07/01 05:53:16;;;;;;;;;;;;;;;;;;5023379;28;90439;-75
2023/07/01 05:55:41;;;;;;;;;;;;;;;;;;5021637;27;89758;-75
2023/07/01 05:58:06;;;;;;;;;;;;;;;;;;5022412;28;89127;-75
2023/07/01 06:00:32;;;;;;;;;;;;;;;;;;5027039;28;89466;-76
2023/07/01 06:02:57;;;;;;;;;;;;;;;;;;5026724;28;89424;-75
2023/07/01 06:05:22;;;;;;;;;;;;;;;;;;5026181;28;89690;-75
2023/07/01 06:07:49;;;;;;;;;;;;;;;;;;5025485;28;90753;-72
2023/07/01 06:10:14;;;;;;;;;;;;;;;;;;5023677;27;90112;-76
2023/07/01 06:12:39;;;;;;;;;;;;;;;;;;5020322;27;89213;-73
2023/07/01 06:15:05;;;;;;;;;;;;;;;;;;5021336;28;89714;-71
2023/07/01 06:17:30;;;;;;;;;;;;;;;;;;5020546;28;89532;-70
2023/07/01 06:19:56;;;;;;;;;;;;;;;;;;5024224;28;90491;-73
2023/07/01 06:22:21;;;;;;;;;;;;;;;;;;5018827;28;89712;-69
2023/07/01 06:24:46;;;;;;;;;;;;;;;;;;5026732;28;89812;-69
2023/07/01 06:27:12;;;;;;;;;;;;;;;;;;5021297;28;90811;-66
2023/07/01 06:29:37;;;;;;;;;;;;;;;;;;5018775;27;90192;-66
2023/07/01 06:32:02;;;;;;;;;;;;;;;;;;5022835;28;89478;-68
2023/07/01 06:34:28;;;;;;;;;;;;;;;;;;5034141;27;92697;-68
2023/07/01 06:36:53;;;;;;;;;;;;;;;;;;5021788;28;89887;-68
2023/07/01 06:39:18;;;;;;;;;;;;;;;;;;5023132;28;89644;-69
2023/07/01 06:41:43;;;;;;;;;;;;;;;;;;5020192;28;90185;-69
2023/07/01 06:44:12;;;;;;;;;;;;;;;;;;5019734;27;89689;-71
2023/07/01 06:46:37;;;;;;;;;;;;;;;;;;5023640;28;89041;-69
2023/07/01 06:49:02;;;;;;;;;;;;;;;;;;5023600;27;90491;-68
2023/07/01 06:51:27;;;;;;;;;;;;;;;;;;5022862;28;89689;-67
2023/07/01 06:53:53;;;;;;;;;;;;;;;;;;5022209;28;89519;-73
2023/07/01 06:56:18;;;;;;;;;;;;;;;;;;5021805;28;91493;-73
2023/07/01 06:58:43;;;;;;;;;;;;;;;;;;5022803;28;89811;-73
2023/07/01 07:01:08;;;;;;;;;;;;;;;;;;5023185;28;90041;-73
2023/07/01 07:03:34;;;;;;;;;;;;;;;;;;5022481;28;90107;-73
2023/07/01 07:06:00;;;;;;;;;;;;;;;;;;5029499;27;90347;-70
2023/07/01 07:08:25;;;;;;;;;;;;;;;;;;5025678;27;90038;-74
2023/07/01 07:10:51;;;;;;;;;;;;;;;;;;5020531;27;90455;-74
2023/07/01 07:13:17;;;;;;;;;;;;;;;;;;5022948;27;89916;-70
2023/07/01 07:15:43;;;;;;;;;;;;;;;;;;5022919;27;89718;-73
2023/07/01 07:18:09;;;;;;;;;;;;;;;;;;5018339;27;89770;-72
2023/07/01 07:20:35;;;;;;;;;;;;;;;;;;5025043;28;89408;-73
2023/07/01 07:23:01;;;;;;;;;;;;;;;;;;5021640;27;89225;-68
2023/07/01 07:25:27;;;;;;;;;;;;;;;;;;5015847;28;90018;-72
2023/07/01 07:27:52;;;;;;;;;;;;;;;;;;5019243;28;89039;-71
2023/07/01 07:30:17;;;;;;;;;;;;;;;;;;5020203;28;91113;-68
2023/07/01 07:32:42;;;;;;;;;;;;;;;;;;5017807;28;90390;-71
2023/07/01 07:35:08;;;;;;;;;;;;;;;;;;5024118;28;90575;-69
2023/07/01 07:37:33;;;;;;;;;;;;;;;;;;5022610;27;89452;-73
2023/07/01 07:39:59;;;;;;;;;;;;;;;;;;5020413;28;90358;-72
2023/07/01 07:42:25;;;;;;;;;;;;;;;;;;5021107;27;90407;-70
2023/07/01 07:44:50;;;;;;;;;;;;;;;;;;5022846;27;89562;-70
2023/07/01 07:47:15;;;;;;;;;;;;;;;;;;5020343;28;90422;-70
2023/07/01 07:49:40;;;;;;;;;;;;;;;;;;5021373;28;90548;-69
2023/07/01 07:52:06;;;;;;;;;;;;;;;;;;5025626;28;89656;-69
2023/07/01 07:54:31;;;;;;;;;;;;;;;;;;5021776;28;91343;-73
2023/07/01 07:56:59;;;;;;;;;;;;;;;;;;5023105;28;89462;-71
2023/07/01 07:59:27;;;;;;;;;;;;;;;;;;5023183;28;89749;-71
2023/07/01 08:01:57;;;;;;;;;;;;;;;;;;5020963;28;91303;-72
2023/07/01 08:04:23;;;;;;;;;;;;;;;;;;5017322;27;90012;-71
2023/07/01 08:06:48;;;;;;;;;;;;;;;;;;5021381;28;89749;-74
2023/07/01 08:09:14;;;;;;;;;;;;;;;;;;5025025;28;90845;-72
2023/07/01 08:11:39;;;;;;;;;;;;;;;;;;5024674;28;90618;-74
2023/07/01 08:14:04;;;;;;;;;;;;;;;;;;5022938;28;89207;-74
2023/07/01 08:16:31;;;;;;;;;;;;;;;;;;5021551;28;90075;-73
2023/07/01 08:18:57;;;;;;;;;;;;;;;;;;5023965;28;89761;-73
2023/07/01 08:21:22;;;;;;;;;;;;;;;;;;5023799;28;89802;-73
2023/07/01 08:23:47;;;;;;;;;;;;;;;;;;5019180;28;89766;-74
2023/07/01 08:26:12;;;;;;;;;;;;;;;;;;5027471;28;90837;-73
2023/07/01 08:28:38;;;;;;;;;;;;;;;;;;5017447;28;89670;-74
2023/07/01 08:31:04;;;;;;;;;;;;;;;;;;5023828;28;89722;-73
2023/07/01 08:33:30;;;;;;;;;;;;;;;;;;5030004;28;91537;-74
2023/07/01 08:35:57;;;;;;;;;;;;;;;;;;5026141;28;91064;-74
2023/07/01 08:38:23;;;;;;;;;;;;;;;;;;5023827;28;90705;-74
2023/07/01 08:40:50;;;;;;;;;;;;;;;;;;5025034;27;90068;-73
2023/07/01 08:43:16;;;;;;;;;;;;;;;;;;5026848;27;90619;-72
2023/07/01 08:45:42;;;;;;;;;;;;;;;;;;5026510;28;90126;-75
2023/07/01 08:48:07;;;;;;;;;;;;;;;;;;5026311;27;90316;-73
2023/07/01 08:50:37;;;;;;;;;;;;;;;;;;5027924;28;89363;-73
2023/07/01 08:53:05;;;;;;;;;;;;;;;;;;5023825;27;90191;-72
2023/07/01 08:55:31;;;;;;;;;;;;;;;;;;5030293;28;90253;-72
2023/07/01 08:57:56;;;;;;;;;;;;;;;;;;5026679;27;90574;-71
2023/07/01 09:00:21;;;;;;;;;;;;;;;;;;5022437;28;91042;-73
2023/07/01 09:02:48;;;;;;;;;;;;;;;;;;5023646;27;90599;-72
2023/07/01 09:05:13;;;;;;;;;;;;;;;;;;5023928;27;89794;-73
2023/07/01 09:07:41;;;;;;;;;;;;;;;;;;5025853;28;89312;-71
2023/07/01 09:10:07;;;;;;;;;;;;;;;;;;5025688;28;89047;-72
2023/07/01 09:12:32;;;;;;;;;;;;;;;;;;5025362;27;91438;-75
2023/07/01 09:15:01;;;;;;;;;;;;;;;;;;5025079;27;90816;-72
2023/07/01 09:17:27;;;;;;;;;;;;;;;;;;5024256;27;90253;-74
2023/07/01 09:19:52;;;;;;;;;;;;;;;;;;5025245;27;90437;-72
2023/07/01 09:22:18;;;;;;;;;;;;;;;;;;5020520;28;90907;-74
2023/07/01 09:24:43;;;;;;;;;;;;;;;;;;5022894;28;91164;-69
2023/07/01 09:27:09;;;;;;;;;;;;;;;;;;5020174;28;90408;-69
2023/07/01 09:29:35;;;;;;;;;;;;;;;;;;5025892;27;89585;-74
2023/07/01 09:32:04;;;;;;;;;;;;;;;;;;5023726;27;89898;-73
2023/07/01 09:34:49;;;;;;;;;;;;;;;;;;5023137;28;89345;-72
2023/07/01 09:37:16;;;;;;;;;;;;;;;;;;5018520;28;89978;-69
2023/07/01 09:39:42;;;;;;;;;;;;;;;;;;5025195;27;89173;-73
2023/07/01 09:42:07;;;;;;;;;;;;;;;;;;5025228;28;89502;-77
2023/07/01 09:44:32;;;;;;;;;;;;;;;;;;5026133;27;89790;-70
2023/07/01 09:46:58;;;;;;;;;;;;;;;;;;5021616;28;89344;-74
2023/07/01 09:49:35;;;;;;;;;;;;;;;;;;5020474;28;90101;-72
2023/07/01 09:52:00;;;;;;;;;;;;;;;;;;5023134;28;90090;-73
2023/07/01 09:54:29;;;;;;;;;;;;;;;;;;5018071;28;91998;-73
2023/07/01 09:56:56;;;;;;;;;;;;;;;;;;5023318;28;89670;-70
2023/07/01 09:59:21;;;;;;;;;;;;;;;;;;5023929;28;90971;-70
2023/07/01 10:01:47;;;;;;;;;;;;;;;;;;5021323;28;90334;-70
2023/07/01 10:04:13;;;;;;;;;;;;;;;;;;5018707;28;92478;-70
2023/07/01 10:06:38;;;;;;;;;;;;;;;;;;5019509;28;89695;-68
2023/07/01 10:09:04;;;;;;;;;;;;;;;;;;5026243;27;89886;-74
2023/07/01 10:11:29;;;;;;;;;;;;;;;;;;5024851;27;91381;-75
2023/07/01 10:13:55;;;;;;;;;;;;;;;;;;5021946;27;89336;-74
2023/07/01 10:16:21;;;;;;;;;;;;;;;;;;5022073;28;89223;-70
2023/07/01 10:18:46;;;;;;;;;;;;;;;;;;5024132;27;92632;-71
2023/07/01 10:21:24;;;;;;;;;;;;;;;;;;5023652;28;89185;-73
2023/07/01 10:23:52;;;;;;;;;;;;;;;;;;5018985;27;89574;-75
2023/07/01 10:26:36;;;;;;;;;;;;;;;;;;5024055;28;90746;-73
2023/07/01 10:29:21;;;;;;;;;;;;;;;;;;5019057;28;88995;-73
2023/07/01 10:32:05;;;;;;;;;;;;;;;;;;5023046;28;91917;-72
2023/07/01 10:34:48;;;;;;;;;;;;;;;;;;5023905;28;89725;-74
2023/07/01 10:37:14;;;;;;;;;;;;;;;;;;5017515;28;90691;-71
2023/07/01 10:39:39;;;;;;;;;;;;;;;;;;5022656;28;89691;-71
2023/07/01 10:42:09;;;;;;;;;;;;;;;;;;5020801;28;93076;-72
2023/07/01 10:44:34;;;;;;;;;;;;;;;;;;5024620;27;92792;-74
2023/07/01 10:47:18;;;;;;;;;;;;;;;;;;5018505;27;93294;-74
2023/07/01 10:50:10;;;;;;;;;;;;;;;;;;5018487;28;93451;-70
2023/07/01 10:52:54;;;;;;;;;;;;;;;;;;5015074;28;94578;-71
2023/07/01 10:55:35;;;;;;;;;;;;;;;;;;5020531;28;93447;-71
2023/07/01 10:58:13;;;;;;;;;;;;;;;;;;5019120;28;92676;-73
2023/07/01 11:00:39;;;;;;;;;;;;;;;;;;5021058;28;94017;-73
2023/07/01 11:03:09;;;;;;;;;;;;;;;;;;5020568;27;92854;-72
2023/07/01 11:05:36;;;;;;;;;;;;;;;;;;5016080;28;92684;-70
2023/07/01 11:08:10;;;;;;;;;;;;;;;;;;5020699;28;93425;-69
2023/07/01 11:10:36;;;;;;;;;;;;;;;;;;5019021;28;93511;-72
2023/07/01 11:13:02;;;;;;;;;;;;;;;;;;5015992;27;95378;-71
2023/07/01 11:15:28;;;;;;;;;;;;;;;;;;5021508;27;95268;-72
2023/07/01 11:17:54;;;;;;;;;;;;;;;;;;5019494;28;93937;-73
2023/07/01 11:20:19;;;;;;;;;;;;;;;;;;5021849;28;92226;-73
2023/07/01 11:22:45;;;;;;;;;;;;;;;;;;5015410;28;93012;-71
2023/07/01 11:25:10;;;;;;;;;;;;;;;;;;5018033;28;93660;-72
2023/07/01 11:27:42;;;;;;;;;;;;;;;;;;5019374;28;92860;-72
2023/07/01 11:30:08;;;;;;;;;;;;;;;;;;5018066;28;92796;-72
2023/07/01 11:32:33;;;;;;;;;;;;;;;;;;5020546;28;93372;-72
2023/07/01 11:34:58;;;;;;;;;;;;;;;;;;5016652;28;93434;-74
2023/07/01 11:37:24;;;;;;;;;;;;;;;;;;5017071;28;94224;-73
2023/07/01 11:39:49;;;;;;;;;;;;;;;;;;5020870;28;92497;-73
2023/07/01 11:42:15;;;;;;;;;;;;;;;;;;5016891;27;94638;-74
2023/07/01 11:44:40;;;;;;;;;;;;;;;;;;5020884;28;92955;-72
2023/07/01 11:47:13;;;;;;;;;;;;;;;;;;5021076;28;92173;-71
2023/07/01 11:49:39;;;;;;;;;;;;;;;;;;5020259;27;93848;-73
2023/07/01 11:52:06;;;;;;;;;;;;;;;;;;5023865;27;93939;-74
2023/07/01 11:54:47;;;;;;;;;;;;;;;;;;5022811;27;94546;-74
2023/07/01 11:57:13;;;;;;;;;;;;;;;;;;5016324;28;93994;-74
2023/07/01 11:59:38;;;;;;;;;;;;;;;;;;5020352;27;92782;-74
2023/07/01 12:02:04;;;;;;;;;;;;;;;;;;5018220;28;94241;-74
2023/07/01 12:04:29;;;;;;;;;;;;;;;;;;5019183;27;92986;-75
2023/07/01 12:07:08;;;;;;;;;;;;;;;;;;5021048;28;93365;-74
2023/07/01 12:09:34;;;;;;;;;;;;;;;;;;5013735;28;95032;-72
2023/07/01 12:11:59;;;;;;;;;;;;;;;;;;5020303;28;93022;-73
2023/07/01 12:14:24;;;;;;;;;;;;;;;;;;5022831;28;92993;-72
2023/07/01 12:16:50;;;;;;;;;;;;;;;;;;5016754;28;93215;-73
2023/07/01 12:19:16;;;;;;;;;;;;;;;;;;5019603;27;92272;-74
2023/07/01 12:21:43;;;;;;;;;;;;;;;;;;5019572;28;95529;-72
2023/07/01 12:24:20;;;;;;;;;;;;;;;;;;5017345;27;94820;-69
2023/07/01 12:26:49;;;;;;;;;;;;;;;;;;5015786;28;92260;-73
2023/07/01 12:29:15;;;;;;;;;;;;;;;;;;5015055;27;93221;-72
2023/07/01 12:31:40;;;;;;;;;;;;;;;;;;5015201;28;97257;-74
2023/07/01 12:34:05;;;;;;;;;;;;;;;;;;5022805;27;92273;-72
2023/07/01 12:36:31;;;;;;;;;;;;;;;;;;5019103;28;93669;-73
2023/07/01 12:38:58;;;;;;;;;;;;;;;;;;5018646;27;92844;-74
2023/07/01 12:41:25;;;;;;;;;;;;;;;;;;5016604;27;93055;-74
2023/07/01 12:43:51;;;;;;;;;;;;;;;;;;5019831;28;93918;-74
2023/07/01 12:46:17;;;;;;;;;;;;;;;;;;5033026;27;92831;-71
2023/07/01 12:48:42;;;;;;;;;;;;;;;;;;5017141;28;92662;-72
2023/07/01 12:51:08;;;;;;;;;;;;;;;;;;5015067;28;93023;-73
2023/07/01 12:53:33;;;;;;;;;;;;;;;;;;5018697;28;93107;-72
2023/07/01 12:55:58;;;;;;;;;;;;;;;;;;5021982;28;94809;-73
2023/07/01 12:58:23;;;;;;;;;;;;;;;;;;5020886;28;93676;-72
2023/07/01 13:00:49;;;;;;;;;;;;;;;;;;5022949;28;96180;-72
2023/07/01 13:03:14;;;;;;;;;;;;;;;;;;5021843;28;94198;-72
2023/07/01 13:05:39;;;;;;;;;;;;;;;;;;5023872;28;93062;-70
2023/07/01 13:08:05;;;;;;;;;;;;;;;;;;5022163;28;94082;-72
2023/07/01 13:10:30;;;;;;;;;;;;;;;;;;5019623;28;93265;-70
2023/07/01 13:12:56;;;;;;;;;;;;;;;;;;5021612;27;91543;-71
2023/07/01 13:15:29;;;;;;;;;;;;;;;;;;5015995;28;95490;-75
2023/07/01 13:17:54;;;;;;;;;;;;;;;;;;5018980;27;94592;-72
2023/07/01 13:20:21;;;;;;;;;;;;;;;;;;5018477;27;94874;-73
2023/07/01 13:22:49;;;;;;;;;;;;;;;;;;5022979;28;92829;-71
2023/07/01 13:25:18;;;;;;;;;;;;;;;;;;5022677;27;92850;-73
2023/07/01 13:27:43;;;;;;;;;;;;;;;;;;5020863;28;95749;-70
2023/07/01 13:30:17;;;;;;;;;;;;;;;;;;5022839;28;93427;-75
2023/07/01 13:32:42;;;;;;;;;;;;;;;;;;5016906;28;92841;-72
2023/07/01 13:35:07;;;;;;;;;;;;;;;;;;5019934;28;93066;-70
2023/07/01 13:37:32;;;;;;;;;;;;;;;;;;5013447;28;92229;-70
2023/07/01 13:39:58;;;;;;;;;;;;;;;;;;5024352;27;93013;-70
2023/07/01 13:42:24;;;;;;;;;;;;;;;;;;5022968;27;94098;-70
2023/07/01 13:44:52;;;;;;;;;;;;;;;;;;5019129;28;93601;-71
2023/07/01 13:47:23;;;;;;;;;;;;;;;;;;5018327;28;94009;-71
2023/07/01 13:49:49;;;;;;;;;;;;;;;;;;5021152;27;95634;-72
2023/07/01 13:52:14;;;;;;;;;;;;;;;;;;5018946;27;93107;-72
2023/07/01 13:54:39;;;;;;;;;;;;;;;;;;5017852;27;92778;-72
2023/07/01 13:57:16;;;;;;;;;;;;;;;;;;5022739;28;92899;-73
2023/07/01 13:59:42;;;;;;;;;;;;;;;;;;5023529;27;92833;-72
2023/07/01 14:02:09;;;;;;;;;;;;;;;;;;5026684;28;92652;-72
2023/07/01 14:04:36;;;;;;;;;;;;;;;;;;5016823;28;93000;-72
2023/07/01 14:07:02;;;;;;;;;;;;;;;;;;5021373;28;93035;-72
2023/07/01 14:09:28;;;;;;;;;;;;;;;;;;5021769;27;95307;-73
2023/07/01 14:11:54;;;;;;;;;;;;;;;;;;5018160;27;92760;-69
2023/07/01 14:14:19;;;;;;;;;;;;;;;;;;5018020;27;93172;-70
2023/07/01 14:16:46;;;;;;;;;;;;;;;;;;5022781;27;93287;-73
2023/07/01 14:19:13;;;;;;;;;;;;;;;;;;5020895;27;92286;-73
2023/07/01 14:21:46;;;;;;;;;;;;;;;;;;5025187;28;92936;-71
2023/07/01 14:24:18;;;;;;;;;;;;;;;;;;5019134;27;93909;-70
2023/07/01 14:26:47;;;;;;;;;;;;;;;;;;5018291;28;94174;-70
2023/07/01 14:29:16;;;;;;;;;;;;;;;;;;5015110;28;93789;-74
2023/07/01 14:31:44;;;;;;;;;;;;;;;;;;5021409;28;92626;-75
2023/07/01 14:34:10;;;;;;;;;;;;;;;;;;5019127;27;94554;-69
2023/07/01 14:36:43;;;;;;;;;;;;;;;;;;5016778;27;93876;-69
2023/07/01 14:39:09;;;;;;;;;;;;;;;;;;5017282;28;92925;-69
2023/07/01 14:41:35;;;;;;;;;;;;;;;;;;5018780;27;92629;-70
2023/07/01 14:44:01;;;;;;;;;;;;;;;;;;5020548;28;96004;-69
2023/07/01 14:46:28;;;;;;;;;;;;;;;;;;5012762;28;93566;-68
2023/07/01 14:48:56;;;;;;;;;;;;;;;;;;5016484;27;93013;-68
2023/07/01 14:51:21;;;;;;;;;;;;;;;;;;5019407;28;93242;-70
2023/07/01 14:53:47;;;;;;;;;;;;;;;;;;5020594;28;93269;-69
2023/07/01 14:56:16;;;;;;;;;;;;;;;;;;5020941;27;92745;-67
2023/07/01 14:58:41;;;;;;;;;;;;;;;;;;5020279;28;95268;-68
2023/07/01 15:01:07;;;;;;;;;;;;;;;;;;5016156;27;93477;-71
2023/07/01 15:03:32;;;;;;;;;;;;;;;;;;5020139;27;93033;-69
2023/07/01 15:05:57;;;;;;;;;;;;;;;;;;5023420;28;92813;-71
2023/07/01 15:08:23;;;;;;;;;;;;;;;;;;5016074;28;93255;-68
2023/07/01 15:10:48;;;;;;;;;;;;;;;;;;5021389;28;93279;-71
2023/07/01 15:13:14;;;;;;;;;;;;;;;;;;5021310;28;92961;-68
2023/07/01 15:15:40;;;;;;;;;;;;;;;;;;5020784;28;92676;-68
2023/07/01 15:18:05;;;;;;;;;;;;;;;;;;5020716;28;92645;-68
2023/07/01 15:20:31;;;;;;;;;;;;;;;;;;5016632;27;93788;-69
2023/07/01 15:22:57;;;;;;;;;;;;;;;;;;5015744;28;95495;-70
2023/07/01 15:25:22;;;;;;;;;;;;;;;;;;5011246;27;93057;-72
2023/07/01 15:27:47;;;;;;;;;;;;;;;;;;5019210;28;93633;-71
2023/07/01 15:30:12;;;;;;;;;;;;;;;;;;5021043;28;92313;-72
2023/07/01 15:32:38;;;;;;;;;;;;;;;;;;5021482;28;94206;-72
2023/07/01 15:35:03;;;;;;;;;;;;;;;;;;5018321;27;92921;-70
2023/07/01 15:37:31;;;;;;;;;;;;;;;;;;5017462;28;93050;-71
2023/07/01 15:39:57;;;;;;;;;;;;;;;;;;5019188;28;93193;-70
2023/07/01 15:42:23;;;;;;;;;;;;;;;;;;5019115;27;92697;-72
2023/07/01 15:44:48;;;;;;;;;;;;;;;;;;5019272;28;93349;-71
2023/07/01 15:47:13;;;;;;;;;;;;;;;;;;5017953;27;94219;-71
2023/07/01 15:49:39;;;;;;;;;;;;;;;;;;5022579;28;94113;-71
2023/07/01 15:52:04;;;;;;;;;;;;;;;;;;5017531;28;93691;-70
2023/07/01 15:54:30;;;;;;;;;;;;;;;;;;5016898;28;93192;-71
2023/07/01 15:56:55;;;;;;;;;;;;;;;;;;5020547;28;93280;-71
2023/07/01 15:59:21;;;;;;;;;;;;;;;;;;5015143;27;92978;-71
2023/07/01 16:01:47;;;;;;;;;;;;;;;;;;5014669;28;93838;-71
2023/07/01 16:04:13;;;;;;;;;;;;;;;;;;5020958;27;91913;-73
2023/07/01 16:06:38;;;;;;;;;;;;;;;;;;5019821;28;94258;-71
2023/07/01 16:09:23;;;;;;;;;;;;;;;;;;5014319;28;93394;-71
2023/07/01 16:11:48;;;;;;;;;;;;;;;;;;5018914;28;93210;-71
2023/07/01 16:14:14;;;;;;;;;;;;;;;;;;5018317;28;92931;-70
2023/07/01 16:16:39;;;;;;;;;;;;;;;;;;5017729;28;93877;-70
2023/07/01 16:19:04;;;;;;;;;;;;;;;;;;5017886;28;92291;-70
2023/07/01 16:21:30;;;;;;;;;;;;;;;;;;5017860;28;92549;-70
2023/07/01 16:23:58;;;;;;;;;;;;;;;;;;5014904;28;93998;-70
2023/07/01 16:26:26;;;;;;;;;;;;;;;;;;5010487;28;93977;-71
2023/07/01 16:28:52;;;;;;;;;;;;;;;;;;5022183;27;92206;-70
2023/07/01 16:31:23;;;;;;;;;;;;;;;;;;5025148;28;92944;-70
2023/07/01 16:33:48;;;;;;;;;;;;;;;;;;5019652;28;94659;-71
2023/07/01 16:36:16;;;;;;;;;;;;;;;;;;5020523;28;94244;-71
2023/07/01 16:38:41;;;;;;;;;;;;;;;;;;5019325;28;93416;-71
2023/07/01 16:41:06;;;;;;;;;;;;;;;;;;5026397;27;95219;-71